Time;durP1;ratioP1;P1;durP2;ratioP2;P2;SDS_P1;SDS_P2;PMS_P1;PMS_P2;Temp;Humidity;BMP_temperature;BMP_pressure;BME280_temperature;BME280_humidity;BME280_pressure;Samples;Min_cycle;Max_cycle;Signal;HPM_P1;HPM_P2
2022/09/02 00:01:40;;;;;;;1.10;0.40;;;;;;;27.29;45.13;101104.59;5092558;28;20416;-52
2022/09/02 00:04:13;;;;;;;2.67;0.55;;;;;;;27.28;45.18;101107.22;5093011;28;20091;-48
2022/09/02 00:06:42;;;;;;;4.15;0.57;;;;;;;27.25;45.21;101110.72;5074491;28;20362;-53
2022/09/02 00:09:16;;;;;;;3.53;0.52;;;;;;;27.28;44.94;101100.19;5092235;28;20030;-50
2022/09/02 00:11:46;;;;;;;2.53;0.70;;;;;;;27.29;44.94;101098.44;5092677;28;20082;-52
2022/09/02 00:14:19;;;;;;;4.05;0.55;;;;;;;27.28;45.17;101096.69;5092279;28;20098;-52
2022/09/02 00:16:51;;;;;;;1.85;0.65;;;;;;;27.26;45.13;101088.78;5092769;28;20024;-51
2022/09/02 00:19:21;;;;;;;4.55;0.88;;;;;;;27.25;45.02;101089.66;5075232;28;20020;-51
2022/09/02 00:21:50;;;;;;;1.15;0.52;;;;;;;27.24;45.02;101089.66;5074323;28;20028;-52
2022/09/02 00:24:20;;;;;;;2.15;0.50;;;;;;;27.23;45.19;101082.63;5074644;28;20485;-49
2022/09/02 00:26:48;;;;;;;2.03;0.60;;;;;;;27.23;45.01;101091.41;5092629;28;20496;-51
2022/09/02 00:29:18;;;;;;;5.18;0.60;;;;;;;27.25;45.13;101084.38;5092480;28;20037;-52
2022/09/02 00:31:47;;;;;;;1.23;0.77;;;;;;;27.25;45.06;101086.16;5092300;28;20020;-52
2022/09/02 00:34:16;;;;;;;1.35;0.82;;;;;;;27.23;45.02;101075.59;5092390;28;20114;-52
2022/09/02 00:36:44;;;;;;;1.20;0.70;;;;;;;27.21;45.23;101072.09;5092610;28;20024;-52
2022/09/02 00:39:13;;;;;;;0.68;0.50;;;;;;;27.24;45.11;101074.72;5092097;28;20059;-52
2022/09/02 00:41:43;;;;;;;1.65;0.75;;;;;;;27.24;44.96;101073.84;5074096;28;20035;-52
2022/09/02 00:44:15;;;;;;;2.10;0.60;;;;;;;27.25;45.07;101065.06;5092422;28;20111;-51
2022/09/02 00:46:42;;;;;;;0.47;0.45;;;;;;;27.25;44.95;101072.97;5074672;28;20028;-48
2022/09/02 00:49:23;;;;;;;1.02;0.50;;;;;;;27.20;45.23;101053.66;5074121;28;20508;-51
2022/09/02 00:51:55;;;;;;;0.50;0.50;;;;;;;27.25;44.95;101057.19;5092502;28;20077;-52
2022/09/02 00:54:23;;;;;;;3.65;0.60;;;;;;;27.24;45.03;101050.16;5092296;28;20381;-51
2022/09/02 00:56:51;;;;;;;0.88;0.32;;;;;;;27.31;44.93;101054.53;5092344;28;20504;-52
2022/09/02 00:59:28;;;;;;;4.43;0.68;;;;;;;27.21;45.35;101044.88;5092067;28;20024;-50
2022/09/02 01:01:57;;;;;;;1.90;0.63;;;;;;;27.12;45.40;101022.03;5074028;28;20177;-52
2022/09/02 01:04:26;;;;;;;3.75;0.75;;;;;;;27.21;45.00;101037.88;5092717;28;20093;-50
2022/09/02 01:06:53;;;;;;;4.03;0.90;;;;;;;27.22;44.98;101036.09;5073886;28;20025;-50
2022/09/02 01:09:22;;;;;;;1.02;0.55;;;;;;;27.21;44.92;101023.81;5092054;28;20550;-52
2022/09/02 01:11:51;;;;;;;0.75;0.55;;;;;;;27.24;45.11;101029.09;5092335;28;20027;-50
2022/09/02 01:14:20;;;;;;;1.48;0.60;;;;;;;27.21;45.02;101031.72;5074287;28;20126;-50
2022/09/02 01:16:51;;;;;;;4.07;0.80;;;;;;;27.13;44.97;101029.06;5091941;28;20497;-52
2022/09/02 01:19:31;;;;;;;1.30;0.70;;;;;;;27.18;44.92;101036.97;5074461;28;20028;-51
2022/09/02 01:21:59;;;;;;;1.63;0.68;;;;;;;27.21;44.93;101032.59;5074234;28;20031;-50
2022/09/02 01:24:30;;;;;;;0.52;0.52;;;;;;;27.17;45.06;101029.94;5093198;28;20397;-52
2022/09/02 01:27:00;;;;;;;2.58;0.80;;;;;;;27.13;45.06;101034.34;5078045;28;20031;-48
2022/09/02 01:29:29;;;;;;;2.35;0.63;;;;;;;27.20;44.96;101025.56;5077668;28;20023;-48
2022/09/02 01:31:57;;;;;;;0.85;0.70;;;;;;;27.23;44.80;101025.56;5095561;28;20032;-49
2022/09/02 01:34:26;;;;;;;5.10;0.82;;;;;;;27.19;45.10;101026.44;5095693;28;20091;-52
2022/09/02 01:36:55;;;;;;;2.00;0.43;;;;;;;27.14;44.95;101020.28;5095665;28;20107;-52
2022/09/02 01:39:23;;;;;;;4.20;0.77;;;;;;;27.12;45.18;101015.03;5095724;28;20012;-52
2022/09/02 01:41:52;;;;;;;1.10;0.50;;;;;;;27.09;45.07;101012.41;5094752;28;20032;-49
2022/09/02 01:44:21;;;;;;;1.10;0.50;;;;;;;27.09;45.12;100999.22;5095118;28;20028;-51
2022/09/02 01:46:50;;;;;;;1.40;0.75;;;;;;;27.18;45.06;101000.09;5095382;28;20020;-51
2022/09/02 01:49:18;;;;;;;3.83;0.65;;;;;;;27.20;44.88;101001.88;5095582;28;20150;-52
2022/09/02 01:51:47;;;;;;;1.27;0.50;;;;;;;27.19;44.80;100999.22;5095153;28;20469;-51
2022/09/02 01:54:14;;;;;;;1.08;0.43;;;;;;;27.16;44.78;101008.00;5095340;28;20492;-53
2022/09/02 01:56:43;;;;;;;1.02;0.60;;;;;;;27.13;44.92;100998.38;5094627;28;20035;-52
2022/09/02 01:59:16;;;;;;;2.95;0.93;;;;;;;27.07;44.88;100986.94;5094899;28;20047;-52
2022/09/02 02:01:45;;;;;;;3.63;0.50;;;;;;;27.19;44.68;100999.22;5094644;28;20193;-52
2022/09/02 02:04:14;;;;;;;1.25;0.57;;;;;;;27.18;44.84;101000.09;5094520;28;20028;-52
2022/09/02 02:06:44;;;;;;;0.77;0.50;;;;;;;27.15;45.00;100995.72;5095071;28;20031;-52
2022/09/02 02:09:14;;;;;;;1.30;0.63;;;;;;;27.13;44.94;100995.72;5094739;28;20024;-52
2022/09/02 02:11:45;;;;;;;2.72;0.70;;;;;;;27.17;44.88;100993.97;5094789;28;20599;-51
2022/09/02 02:14:12;;;;;;;1.83;0.65;;;;;;;27.15;44.81;100987.81;5094726;28;20020;-51
2022/09/02 02:16:40;;;;;;;2.47;0.82;;;;;;;27.20;44.78;100985.19;5094762;28;20020;-52
2022/09/02 02:19:08;;;;;;;0.63;0.38;;;;;;;27.18;44.73;100979.94;5094555;28;20085;-49
2022/09/02 02:21:37;;;;;;;3.95;0.65;;;;;;;27.14;44.68;100973.75;5094506;28;20028;-53
2022/09/02 02:24:06;;;;;;;3.42;1.00;;;;;;;27.12;44.79;100972.91;5094596;28;20027;-53
2022/09/02 02:26:36;;;;;;;1.38;0.60;;;;;;;27.10;44.45;100972.03;5094320;28;20122;-52
2022/09/02 02:29:04;;;;;;;2.00;0.80;;;;;;;27.12;44.87;100972.00;5094180;28;20059;-51
2022/09/02 02:31:32;;;;;;;1.48;0.50;;;;;;;27.12;44.72;100972.00;5076614;28;20078;-51
2022/09/02 02:34:01;;;;;;;4.35;0.80;;;;;;;27.12;44.79;100972.91;5094551;28;20046;-48
2022/09/02 02:36:30;;;;;;;1.63;0.70;;;;;;;27.13;44.79;100976.41;5076230;28;20028;-50
2022/09/02 02:39:00;;;;;;;5.13;1.05;;;;;;;27.11;44.77;100973.78;5094168;28;20028;-51
2022/09/02 02:41:30;;;;;;;3.22;0.60;;;;;;;27.09;44.81;100975.53;5094426;28;20020;-50
2022/09/02 02:43:59;;;;;;;1.17;0.40;;;;;;;26.98;44.73;100957.09;5094421;28;20020;-49
2022/09/02 02:46:29;;;;;;;0.50;0.30;;;;;;;27.06;44.73;100969.38;5094118;28;20035;-48
2022/09/02 02:49:00;;;;;;;2.15;0.70;;;;;;;27.06;44.64;100967.63;5094110;28;20477;-52
2022/09/02 02:51:29;;;;;;;1.95;0.60;;;;;;;27.08;44.56;100960.63;5076272;28;20032;-52
2022/09/02 02:53:57;;;;;;;1.80;0.60;;;;;;;27.10;44.51;100964.13;5094177;28;20107;-52
2022/09/02 02:56:26;;;;;;;2.20;0.60;;;;;;;27.11;44.57;100963.25;5093831;28;20466;-51
2022/09/02 02:58:54;;;;;;;1.25;0.50;;;;;;;27.03;44.54;100954.47;5093760;28;20028;-48
2022/09/02 03:01:22;;;;;;;3.50;0.60;;;;;;;27.02;44.59;100952.72;5075599;28;20419;-47
2022/09/02 03:03:52;;;;;;;2.97;0.60;;;;;;;27.03;44.60;100953.59;5093905;28;20089;-49
2022/09/02 03:06:20;;;;;;;4.22;0.70;;;;;;;26.97;44.54;100950.06;5093701;28;20031;-47
2022/09/02 03:08:48;;;;;;;1.85;0.60;;;;;;;27.07;44.73;100960.59;5093711;28;20463;-52
2022/09/02 03:11:17;;;;;;;3.42;0.40;;;;;;;27.06;44.40;100954.47;5093658;28;20074;-49
2022/09/02 03:13:46;;;;;;;1.25;0.50;;;;;;;27.07;44.37;100961.50;5093534;28;20122;-49
2022/09/02 03:16:14;;;;;;;2.60;0.40;;;;;;;27.07;44.48;100964.13;5093644;28;20103;-49
2022/09/02 03:18:42;;;;;;;3.13;0.60;;;;;;;27.07;44.32;100960.59;5093506;28;20449;-48
2022/09/02 03:21:11;;;;;;;0.50;0.35;;;;;;;27.10;43.89;100961.50;5093656;28;20020;-48
2022/09/02 03:23:40;;;;;;;0.40;0.40;;;;;;;26.96;44.22;100936.94;5093333;28;20055;-49
2022/09/02 03:26:12;;;;;;;1.88;0.60;;;;;;;27.04;44.28;100955.34;5093605;28;20028;-48
2022/09/02 03:28:40;;;;;;;2.58;0.50;;;;;;;27.06;44.31;100953.56;5093168;28;20030;-48
2022/09/02 03:31:12;;;;;;;0.73;0.60;;;;;;;27.03;43.98;100950.97;5093508;28;20400;-48
2022/09/02 03:33:41;;;;;;;2.67;0.50;;;;;;;26.98;44.36;100949.19;5075449;28;20028;-47
2022/09/02 03:36:12;;;;;;;2.17;0.50;;;;;;;27.00;44.19;100946.56;5093271;28;20031;-48
2022/09/02 03:38:40;;;;;;;0.98;0.43;;;;;;;26.93;44.32;100939.56;5058505;28;20110;-48
2022/09/02 03:41:07;;;;;;;3.53;0.52;;;;;;;27.01;44.19;100937.78;5093271;28;20024;-52
2022/09/02 03:43:36;;;;;;;2.30;0.50;;;;;;;27.03;44.14;100941.31;5093187;28;20110;-50
2022/09/02 03:46:05;;;;;;;2.05;0.50;;;;;;;26.95;44.25;100933.41;5093099;28;20024;-51
2022/09/02 03:48:33;;;;;;;4.47;0.65;;;;;;;26.96;44.08;100940.44;5092046;28;20035;-52
2022/09/02 03:51:03;;;;;;;2.13;0.50;;;;;;;26.95;44.16;100932.53;5092861;28;20177;-52
2022/09/02 03:53:31;;;;;;;2.35;0.50;;;;;;;26.93;44.31;100937.78;5074852;28;20411;-50
2022/09/02 03:56:06;;;;;;;0.98;0.50;;;;;;;26.92;43.99;100930.75;5092814;28;20020;-52
2022/09/02 03:58:35;;;;;;;0.63;0.43;;;;;;;26.96;43.96;100942.19;5092434;28;20392;-51
2022/09/02 04:01:04;;;;;;;1.65;0.50;;;;;;;27.01;43.85;100940.41;5092745;28;20035;-50
2022/09/02 04:03:33;;;;;;;1.33;0.55;;;;;;;26.92;44.00;100941.28;5092760;28;20041;-52
2022/09/02 04:06:01;;;;;;;0.98;0.52;;;;;;;26.89;44.09;100938.66;5092644;28;20036;-49
2022/09/02 04:08:29;;;;;;;1.02;0.40;;;;;;;26.91;44.21;100944.81;5092539;28;20466;-52
2022/09/02 04:10:57;;;;;;;3.70;0.75;;;;;;;26.91;44.08;100936.03;5092536;28;20487;-51
2022/09/02 04:13:25;;;;;;;1.45;0.55;;;;;;;26.92;44.10;100936.03;5092421;28;20024;-51
2022/09/02 04:15:54;;;;;;;0.68;0.50;;;;;;;26.91;43.98;100933.41;5092635;28;20097;-51
2022/09/02 04:18:22;;;;;;;0.98;0.50;;;;;;;26.93;43.91;100937.78;5092402;28;20484;-52
2022/09/02 04:20:50;;;;;;;1.23;0.40;;;;;;;26.89;43.91;100930.75;5093099;28;20024;-52
2022/09/02 04:23:19;;;;;;;0.95;0.40;;;;;;;26.92;44.32;100937.81;5092754;28;20494;-49
2022/09/02 04:25:47;;;;;;;1.83;0.70;;;;;;;26.94;43.80;100926.38;5092561;28;20035;-52
2022/09/02 04:28:16;;;;;;;1.45;0.50;;;;;;;26.93;43.64;100926.41;5092358;28;20039;-52
2022/09/02 04:30:44;;;;;;;4.07;0.70;;;;;;;26.90;43.91;100921.13;5074726;28;20474;-51
2022/09/02 04:33:14;;;;;;;2.53;0.80;;;;;;;26.86;44.04;100922.00;5092396;28;20077;-52
2022/09/02 04:35:43;;;;;;;0.80;0.45;;;;;;;26.84;43.84;100916.75;5092688;28;20055;-50
2022/09/02 04:38:12;;;;;;;0.45;0.45;;;;;;;26.84;43.87;100916.75;5092506;28;20020;-50
2022/09/02 04:40:41;;;;;;;1.33;0.52;;;;;;;26.82;44.21;100908.81;5092704;28;20020;-49
2022/09/02 04:43:10;;;;;;;0.85;0.52;;;;;;;26.80;43.95;100915.88;5074632;28;20393;-49
2022/09/02 04:45:43;;;;;;;0.65;0.43;;;;;;;26.75;44.10;100908.78;5092481;28;20370;-48
2022/09/02 04:48:12;;;;;;;1.90;0.77;;;;;;;26.78;44.08;100914.97;5092485;28;20024;-49
2022/09/02 04:50:40;;;;;;;4.57;0.50;;;;;;;26.82;43.90;100908.81;5091939;28;20028;-47
2022/09/02 04:53:09;;;;;;;2.60;0.60;;;;;;;26.83;43.95;100915.00;5092431;28;20020;-51
2022/09/02 04:55:40;;;;;;;1.15;0.60;;;;;;;26.84;43.94;100916.75;5092244;28;20046;-48
2022/09/02 04:58:10;;;;;;;1.98;0.50;;;;;;;26.74;43.92;100915.81;5092408;28;20024;-48
2022/09/02 05:00:39;;;;;;;3.92;0.55;;;;;;;26.80;44.10;100917.63;5095551;28;20059;-48
2022/09/02 05:03:10;;;;;;;2.25;0.70;;;;;;;26.79;43.81;100908.84;5096090;28;20119;-48
2022/09/02 05:05:39;;;;;;;3.72;0.80;;;;;;;26.82;43.78;100911.47;5096018;28;20394;-49
2022/09/02 05:08:07;;;;;;;0.85;0.55;;;;;;;26.83;43.74;100921.13;5095747;28;20046;-50
2022/09/02 05:10:37;;;;;;;1.90;0.60;;;;;;;26.80;43.83;100913.25;5096180;28;20031;-48
2022/09/02 05:13:06;;;;;;;1.02;0.60;;;;;;;26.81;43.70;100920.22;5095730;28;20027;-48
2022/09/02 05:15:38;;;;;;;2.03;0.80;;;;;;;26.75;43.87;100912.31;5095682;28;20024;-47
2022/09/02 05:18:05;;;;;;;3.15;0.60;;;;;;;26.76;43.83;100916.72;5095587;28;20374;-49
2022/09/02 05:20:33;;;;;;;4.32;0.55;;;;;;;26.78;43.97;100921.97;5095818;28;20020;-47
2022/09/02 05:23:02;;;;;;;2.35;0.40;;;;;;;26.76;43.83;100915.81;5095882;28;20028;-48
2022/09/02 05:25:30;;;;;;;1.92;0.60;;;;;;;26.63;44.02;100899.16;5077954;28;20389;-48
2022/09/02 05:27:59;;;;;;;2.47;0.70;;;;;;;26.78;44.05;100924.59;5095707;28;20035;-48
2022/09/02 05:30:27;;;;;;;3.33;0.50;;;;;;;26.76;43.92;100926.34;5095308;28;20039;-49
2022/09/02 05:32:56;;;;;;;0.50;0.47;;;;;;;26.72;43.97;100919.34;5095802;28;20020;-47
2022/09/02 05:35:24;;;;;;;2.63;0.93;;;;;;;26.72;44.03;100938.63;5095583;28;20031;-47
2022/09/02 05:37:53;;;;;;;1.08;0.70;;;;;;;26.75;43.86;100937.75;5095163;28;20173;-48
2022/09/02 05:40:22;;;;;;;1.75;0.57;;;;;;;26.77;43.69;100929.00;5095491;28;20020;-48
2022/09/02 05:42:50;;;;;;;1.63;0.82;;;;;;;26.77;44.07;100931.63;5095669;28;20020;-48
2022/09/02 05:45:19;;;;;;;1.60;0.65;;;;;;;26.77;43.86;100933.34;5077749;28;20040;-52
2022/09/02 05:47:47;;;;;;;2.17;0.70;;;;;;;26.80;43.63;100930.78;5095126;28;20032;-51
2022/09/02 05:50:16;;;;;;;2.42;0.70;;;;;;;26.72;43.82;100922.84;5095141;28;20031;-52
2022/09/02 05:52:44;;;;;;;2.42;0.82;;;;;;;26.75;44.07;100932.47;5095396;28;20020;-52
2022/09/02 05:55:13;;;;;;;1.73;0.70;;;;;;;26.76;43.71;100929.88;5095235;28;20063;-49
2022/09/02 05:57:42;;;;;;;4.15;1.02;;;;;;;26.76;43.80;100929.88;5095310;28;20031;-52
2022/09/02 06:00:11;;;;;;;2.28;0.52;;;;;;;26.77;43.93;100933.34;5077012;28;20074;-50
2022/09/02 06:02:39;;;;;;;3.22;0.93;;;;;;;26.77;43.97;100936.00;5094778;28;20044;-52
2022/09/02 06:05:10;;;;;;;3.88;0.60;;;;;;;26.74;43.79;100930.72;5076470;28;20032;-52
2022/09/02 06:07:39;;;;;;;1.42;0.60;;;;;;;26.74;43.82;100931.63;5094796;28;20051;-52
2022/09/02 06:10:07;;;;;;;2.30;0.80;;;;;;;26.76;43.92;100940.41;5094472;28;20607;-52
2022/09/02 06:12:36;;;;;;;3.05;0.93;;;;;;;26.77;43.83;100936.88;5094500;28;20028;-51
2022/09/02 06:15:05;;;;;;;1.33;0.70;;;;;;;26.73;44.00;100929.88;5077057;28;20032;-52
2022/09/02 06:17:33;;;;;;;5.63;0.82;;;;;;;26.79;43.80;100929.91;5095094;28;20109;-51
2022/09/02 06:20:02;;;;;;;2.55;0.93;;;;;;;26.80;43.78;100933.41;5094551;28;20516;-48
2022/09/02 06:22:29;;;;;;;6.72;1.10;;;;;;;26.78;43.88;100937.75;5094735;28;20036;-53
2022/09/02 06:24:57;;;;;;;3.78;0.75;;;;;;;26.81;43.93;100940.44;5094286;28;20441;-51
2022/09/02 06:27:26;;;;;;;5.10;1.23;;;;;;;26.80;43.97;100930.78;5094810;28;20492;-51
2022/09/02 06:29:53;;;;;;;4.55;0.77;;;;;;;26.84;43.73;100937.81;5094361;28;20078;-48
2022/09/02 06:32:21;;;;;;;2.22;0.70;;;;;;;26.87;43.92;100944.81;5094405;28;20363;-51
2022/09/02 06:34:50;;;;;;;8.35;1.52;;;;;;;26.86;43.62;100943.94;5094604;28;20019;-53
2022/09/02 06:37:18;;;;;;;1.27;0.68;;;;;;;26.88;43.71;100943.94;5093763;28;20024;-51
2022/09/02 06:39:47;;;;;;;2.70;1.13;;;;;;;26.89;43.91;100943.91;5094043;28;20103;-51
2022/09/02 06:42:15;;;;;;;5.05;0.95;;;;;;;26.86;44.02;100935.16;5094440;28;20013;-51
2022/09/02 06:44:44;;;;;;;5.90;1.13;;;;;;;26.90;44.21;100943.03;5094040;28;20030;-48
2022/09/02 06:47:12;;;;;;;1.90;0.90;;;;;;;26.92;44.21;100943.94;5093651;28;20036;-48
2022/09/02 06:49:41;;;;;;;2.42;0.88;;;;;;;26.92;44.28;100946.56;5094238;28;20028;-49
2022/09/02 06:52:09;;;;;;;2.50;0.73;;;;;;;26.89;44.37;100943.91;5076109;28;20028;-51
2022/09/02 06:54:38;;;;;;;4.90;0.70;;;;;;;26.86;44.17;100941.31;5076211;28;20032;-51
2022/09/02 06:57:07;;;;;;;10.60;1.80;;;;;;;26.93;44.37;100945.69;5093624;28;20159;-48
2022/09/02 06:59:35;;;;;;;1.73;0.80;;;;;;;26.92;44.47;100943.06;5094012;28;20067;-51
2022/09/02 07:02:03;;;;;;;2.17;0.82;;;;;;;26.88;44.35;100943.94;5093422;28;20044;-47
2022/09/02 07:05:14;;;;;;;2.03;0.50;;;;;;;26.92;44.25;100941.28;5093906;28;20063;-51
2022/09/02 07:07:19;;;;;;;3.85;0.85;;;;;;;26.95;44.30;100943.94;5090360;28;20043;-47
2022/09/02 07:09:46;;;;;;;3.60;0.77;;;;;;;26.95;44.40;100943.94;5093702;28;20035;-50
2022/09/02 07:12:16;;;;;;;5.90;0.80;;;;;;;26.94;44.22;100936.91;5093621;28;20084;-47
2022/09/02 07:14:44;;;;;;;1.00;0.63;;;;;;;26.95;44.62;100946.56;5093256;28;20028;-52
2022/09/02 07:17:20;;;;;;;1.15;0.60;;;;;;;26.92;44.53;100948.34;5093190;28;20032;-50
2022/09/02 07:19:49;;;;;;;3.05;1.20;;;;;;;26.93;44.66;100947.47;5093682;28;20137;-48
2022/09/02 07:22:18;;;;;;;4.53;1.20;;;;;;;26.90;44.49;100947.44;5093497;28;20111;-50
2022/09/02 07:24:47;;;;;;;5.68;0.60;;;;;;;26.92;44.70;100937.81;5093377;28;20031;-51
2022/09/02 07:27:19;;;;;;;4.03;1.25;;;;;;;26.93;44.63;100950.09;5093627;28;20042;-52
2022/09/02 07:29:48;;;;;;;4.05;1.30;;;;;;;26.92;44.56;100951.81;5075990;28;20020;-48
2022/09/02 07:32:18;;;;;;;6.00;0.93;;;;;;;26.89;44.33;100946.56;5093517;28;20024;-48
2022/09/02 07:34:46;;;;;;;6.13;1.02;;;;;;;26.92;44.62;100950.97;5093215;28;20031;-47
2022/09/02 07:37:15;;;;;;;2.60;0.98;;;;;;;26.89;44.71;100951.81;5092974;28;20556;-48
2022/09/02 07:39:44;;;;;;;3.20;1.05;;;;;;;26.90;44.75;100955.34;5093103;28;20129;-48
2022/09/02 07:42:12;;;;;;;4.13;1.05;;;;;;;26.90;44.86;100950.06;5093385;28;20020;-47
2022/09/02 07:44:41;;;;;;;2.22;0.77;;;;;;;26.93;44.79;100942.19;5093247;28;20508;-49
2022/09/02 07:47:10;;;;;;;1.40;0.93;;;;;;;26.92;44.63;100951.81;5093217;28;20028;-47
2022/09/02 07:49:39;;;;;;;5.57;1.40;;;;;;;26.91;44.80;100951.84;5093266;28;20023;-50
2022/09/02 07:52:07;;;;;;;2.50;0.98;;;;;;;26.91;44.62;100947.44;5092993;28;20107;-52
2022/09/02 07:54:36;;;;;;;3.42;1.10;;;;;;;26.99;44.60;100943.06;5093317;28;20020;-51
2022/09/02 07:57:04;;;;;;;6.72;1.35;;;;;;;26.99;44.62;100943.06;5092881;28;20028;-50
2022/09/02 07:59:33;;;;;;;2.83;0.95;;;;;;;27.02;44.49;100947.44;5075179;28;20020;-48
2022/09/02 08:02:02;;;;;;;3.13;1.10;;;;;;;27.06;44.66;100946.56;5092576;28;20055;-51
2022/09/02 08:04:30;;;;;;;2.10;1.02;;;;;;;27.05;44.70;100950.06;5092944;28;20028;-50
2022/09/02 08:06:59;;;;;;;4.30;0.90;;;;;;;27.11;44.61;100951.81;5092598;28;20032;-52
2022/09/02 08:09:27;;;;;;;5.43;0.95;;;;;;;27.08;44.57;100949.19;5074535;28;20028;-52
2022/09/02 08:11:56;;;;;;;2.75;1.45;;;;;;;27.14;44.47;100950.06;5092343;28;20038;-56
2022/09/02 08:14:27;;;;;;;1.33;0.70;;;;;;;27.15;44.32;100949.19;5092745;28;20374;-50
2022/09/02 08:16:56;;;;;;;2.80;0.93;;;;;;;27.12;44.54;100949.22;5091054;28;20473;-53
2022/09/02 08:19:23;;;;;;;3.28;0.90;;;;;;;27.11;44.30;100950.09;5084636;28;20495;-51
2022/09/02 08:21:51;;;;;;;1.83;0.85;;;;;;;27.06;44.67;100935.16;5099537;28;20035;-51
2022/09/02 08:24:18;;;;;;;2.65;0.85;;;;;;;27.12;44.62;100951.84;5103003;28;20055;-50
2022/09/02 08:26:45;;;;;;;2.30;0.73;;;;;;;27.11;44.70;100946.56;5099047;28;21295;-52
2022/09/02 08:29:13;;;;;;;2.13;1.05;;;;;;;27.17;44.36;100950.94;5080315;28;20568;-49
2022/09/02 08:31:40;;;;;;;2.30;0.70;;;;;;;27.21;44.35;100947.44;5081484;28;20036;-52
2022/09/02 08:34:08;;;;;;;1.58;0.70;;;;;;;27.17;44.70;100946.56;5103046;28;20026;-52
2022/09/02 08:36:38;;;;;;;1.13;0.60;;;;;;;27.17;44.74;100961.47;5102740;28;20093;-52
2022/09/02 08:39:06;;;;;;;2.75;0.80;;;;;;;27.14;44.48;100951.84;5105080;28;20031;-52
2022/09/02 08:41:56;;;;;;;3.38;1.25;;;;;;;27.14;44.45;100960.59;5101804;28;20497;-52
2022/09/02 08:44:26;;;;;;;2.67;0.90;;;;;;;27.20;44.69;100961.47;5104120;28;20032;-52
2022/09/02 08:47:00;;;;;;;5.43;0.82;;;;;;;27.17;44.38;100951.84;5103534;28;20020;-52
2022/09/02 08:49:34;;;;;;;4.83;0.93;;;;;;;27.21;44.40;100964.13;5088093;28;20381;-52
2022/09/02 08:52:03;;;;;;;7.93;1.00;;;;;;;27.19;44.32;100942.19;5104168;28;20032;-52
2022/09/02 08:54:32;;;;;;;4.25;0.85;;;;;;;27.37;44.25;100964.97;5106329;28;20123;-51
2022/09/02 08:57:00;;;;;;;4.13;0.90;;;;;;;27.41;44.15;100956.19;5098924;28;20501;-52
2022/09/02 08:59:29;;;;;;;1.85;0.80;;;;;;;27.46;43.94;100950.09;5085794;28;20071;-52
2022/09/02 09:02:36;;;;;;;2.78;1.00;;;;;;;27.49;44.03;100950.03;5102690;28;20048;-52
2022/09/02 09:05:13;;;;;;;4.15;0.80;;;;;;;27.49;43.66;100947.41;5086934;28;20040;-51
2022/09/02 09:08:11;;;;;;;1.02;0.57;;;;;;;27.46;44.00;100943.03;5095018;28;20024;-52
2022/09/02 09:10:47;;;;;;;1.75;0.80;;;;;;;27.50;43.83;100944.78;5084992;28;20536;-51
2022/09/02 09:13:16;;;;;;;2.95;1.10;;;;;;;27.54;43.93;100940.38;5095850;28;20118;-52
2022/09/02 09:15:51;;;;;;;2.30;0.80;;;;;;;27.53;43.78;100933.34;5095584;28;20032;-52
2022/09/02 09:18:24;;;;;;;1.25;0.70;;;;;;;27.63;43.58;100936.84;5095880;28;20556;-52
2022/09/02 09:20:52;;;;;;;2.35;1.00;;;;;;;27.63;43.78;100932.47;5077766;28;20024;-53
2022/09/02 09:23:29;;;;;;;2.10;1.10;;;;;;;27.64;43.99;100941.25;5095644;28;20477;-53
2022/09/02 09:26:10;;;;;;;2.65;1.02;;;;;;;27.59;43.93;100926.31;5095681;28;20036;-52
2022/09/02 09:28:50;;;;;;;3.28;1.15;;;;;;;27.69;43.79;100931.56;5095425;28;20152;-51
2022/09/02 09:31:20;;;;;;;2.50;1.10;;;;;;;27.71;43.74;100935.09;5095856;28;20031;-51
2022/09/02 09:34:09;;;;;;;2.60;0.95;;;;;;;27.67;43.82;100930.69;5095605;28;20115;-48
2022/09/02 09:36:40;;;;;;;4.47;1.00;;;;;;;27.67;44.06;100933.34;5086542;28;20048;-49
2022/09/02 09:39:29;;;;;;;3.72;1.02;;;;;;;27.75;43.73;100934.16;5095701;28;20461;-47
2022/09/02 09:42:02;;;;;;;1.85;1.00;;;;;;;27.79;44.18;100937.69;5077175;28;20491;-48
2022/09/02 09:44:43;;;;;;;2.17;0.80;;;;;;;27.77;44.14;100929.78;5095282;28;20060;-49
2022/09/02 09:47:18;;;;;;;2.35;0.88;;;;;;;27.79;44.03;100932.41;5094188;28;20121;-49
2022/09/02 09:49:49;;;;;;;2.08;1.05;;;;;;;27.81;43.87;100931.53;5077993;28;20050;-53
2022/09/02 09:52:29;;;;;;;4.30;1.55;;;;;;;27.83;43.79;100924.50;5077514;28;20063;-52
2022/09/02 09:55:18;;;;;;;2.75;1.10;;;;;;;27.81;44.04;100926.25;5095102;28;20085;-52
2022/09/02 09:57:49;;;;;;;1.58;0.80;;;;;;;27.93;43.79;100933.25;5069536;28;20059;-51
2022/09/02 10:00:37;;;;;;;2.90;1.40;;;;;;;27.87;44.00;100933.25;5095226;28;20028;-51
2022/09/02 10:03:07;;;;;;;3.63;1.15;;;;;;;27.90;44.07;100931.47;5076781;28;20048;-52
2022/09/02 10:05:38;;;;;;;1.95;1.10;;;;;;;27.87;43.98;100927.97;5094514;28;20123;-51
2022/09/02 10:08:21;;;;;;;1.77;0.90;;;;;;;27.83;44.12;100928.88;5076646;28;20024;-50
2022/09/02 10:11:00;;;;;;;2.55;1.23;;;;;;;27.83;44.26;100923.59;5094593;28;20102;-49
2022/09/02 10:13:33;;;;;;;2.88;0.98;;;;;;;27.89;44.20;100931.50;5094840;28;20024;-52
2022/09/02 10:16:05;;;;;;;1.42;1.00;;;;;;;27.91;43.87;100924.47;5094984;28;20028;-52
2022/09/02 10:18:39;;;;;;;1.73;0.98;;;;;;;27.96;44.25;100924.44;5094432;28;20047;-52
2022/09/02 10:21:33;;;;;;;2.33;0.85;;;;;;;27.97;44.31;100919.13;5094564;28;20024;-52
2022/09/02 10:24:15;;;;;;;6.07;1.20;;;;;;;28.05;44.19;100921.72;5051414;28;20036;-51
2022/09/02 10:26:50;;;;;;;4.97;1.23;;;;;;;28.16;44.02;100927.00;5076356;28;20045;-51
2022/09/02 10:29:40;;;;;;;3.67;2.13;;;;;;;28.14;44.29;100915.56;5094514;28;20095;-52
2022/09/02 10:32:12;;;;;;;1.48;1.10;;;;;;;28.18;44.17;100912.03;5094509;28;20137;-51
2022/09/02 10:35:00;;;;;;;4.38;1.20;;;;;;;28.16;44.22;100916.44;5094449;28;20039;-52
2022/09/02 10:37:47;;;;;;;3.75;1.15;;;;;;;28.15;44.21;100917.31;5084020;28;20036;-52
2022/09/02 10:40:19;;;;;;;1.52;1.00;;;;;;;28.22;44.41;100916.41;5094178;28;20034;-51
2022/09/02 10:43:01;;;;;;;1.75;0.80;;;;;;;28.18;44.20;100914.69;5076716;28;20021;-52
2022/09/02 10:45:50;;;;;;;1.83;1.13;;;;;;;28.24;44.21;100912.00;5059648;28;20498;-51
2022/09/02 10:48:33;;;;;;;3.28;1.05;;;;;;;28.25;43.99;100916.41;5094134;28;20086;-52
2022/09/02 10:51:20;;;;;;;2.33;1.20;;;;;;;28.27;44.19;100913.75;5076423;28;20020;-50
2022/09/02 10:54:23;;;;;;;1.67;0.88;;;;;;;28.29;43.99;100904.06;5076160;28;20020;-50
2022/09/02 10:56:59;;;;;;;2.05;1.10;;;;;;;28.34;44.00;100911.06;5083663;28;20036;-51
2022/09/02 10:59:35;;;;;;;2.78;1.17;;;;;;;28.26;44.09;100904.97;5094006;28;20032;-50
2022/09/02 11:02:14;;;;;;;1.13;0.80;;;;;;;28.30;43.73;100916.38;5093686;28;20040;-50
2022/09/02 11:04:58;;;;;;;2.10;0.77;;;;;;;28.31;44.05;100912.84;5093687;28;20223;-50
2022/09/02 11:07:50;;;;;;;3.63;1.35;;;;;;;28.33;44.15;100911.94;5093919;28;20028;-52
2022/09/02 11:10:26;;;;;;;5.07;1.13;;;;;;;28.37;44.06;100906.66;5093532;28;20117;-50
2022/09/02 11:13:03;;;;;;;2.58;1.10;;;;;;;28.38;43.98;100905.78;5075791;28;20031;-51
2022/09/02 11:15:48;;;;;;;1.83;0.88;;;;;;;28.36;44.11;100900.50;5093538;28;20481;-53
2022/09/02 11:18:18;;;;;;;;;;;;;;;28.34;44.29;100895.22;5093931;28;20028;-50
2022/09/02 11:21:07;;;;;;;1.50;1.05;;;;;;;28.37;44.26;100896.09;5093632;28;19912;-49
2022/09/02 11:23:57;;;;;;;2.42;1.05;;;;;;;28.35;44.20;100891.72;5051129;28;20028;-52
2022/09/02 11:26:31;;;;;;;4.97;0.82;;;;;;;28.36;44.13;100889.97;5067664;28;20485;-51
2022/09/02 11:29:11;;;;;;;5.17;1.23;;;;;;;28.42;43.92;100889.91;5092949;28;20055;-51
2022/09/02 11:31:46;;;;;;;3.30;0.95;;;;;;;28.43;44.03;100893.44;5075083;28;20477;-52
2022/09/02 11:34:33;;;;;;;3.53;1.23;;;;;;;28.44;44.02;100887.28;5093508;28;20027;-48
2022/09/02 11:37:11;;;;;;;2.55;0.88;;;;;;;28.43;44.04;100867.91;5076250;28;20035;-51
2022/09/02 11:39:44;;;;;;;1.75;0.93;;;;;;;28.45;44.17;100881.09;5075271;28;20028;-48
2022/09/02 11:42:40;;;;;;;2.03;1.10;;;;;;;28.48;43.88;100876.66;5093098;28;20111;-48
2022/09/02 11:45:16;;;;;;;2.35;0.90;;;;;;;28.52;43.82;100871.38;5092789;28;20039;-52